sensor_id;sensor_type;location;lat;lon;timestamp;P1;durP1;ratioP1;P2;durP2;ratioP2
71836;SDS011;59686;51.716;7.016;2023-02-27T00:02:15;3.67;;;2.87;;
71836;SDS011;59686;51.716;7.016;2023-02-27T00:04:40;4.27;;;3.10;;
71836;SDS011;59686;51.716;7.016;2023-02-27T00:07:06;3.93;;;3.00;;
71836;SDS011;59686;51.716;7.016;2023-02-27T00:09:32;8.23;;;3.23;;
71836;SDS011;59686;51.716;7.016;2023-02-27T00:11:58;3.97;;;2.80;;
71836;SDS011;59686;51.716;7.016;2023-02-27T00:14:24;5.77;;;3.13;;
71836;SDS011;59686;51.716;7.016;2023-02-27T00:16:50;4.83;;;3.00;;
71836;SDS011;59686;51.716;7.016;2023-02-27T00:19:16;4.67;;;3.00;;
71836;SDS011;59686;51.716;7.016;2023-02-27T00:21:41;3.70;;;2.87;;
71836;SDS011;59686;51.716;7.016;2023-02-27T00:24:08;6.30;;;2.90;;
71836;SDS011;59686;51.716;7.016;2023-02-27T00:26:35;4.90;;;3.37;;
71836;SDS011;59686;51.716;7.016;2023-02-27T00:29:02;4.53;;;2.73;;
71836;SDS011;59686;51.716;7.016;2023-02-27T00:31:28;4.30;;;3.00;;
71836;SDS011;59686;51.716;7.016;2023-02-27T00:33:54;4.93;;;2.90;;
71836;SDS011;59686;51.716;7.016;2023-02-27T00:36:20;3.77;;;2.60;;
71836;SDS011;59686;51.716;7.016;2023-02-27T00:38:46;4.50;;;3.07;;
71836;SDS011;59686;51.716;7.016;2023-02-27T00:41:12;5.30;;;3.00;;
71836;SDS011;59686;51.716;7.016;2023-02-27T00:43:38;4.67;;;2.77;;
71836;SDS011;59686;51.716;7.016;2023-02-27T00:46:04;4.67;;;2.67;;
71836;SDS011;59686;51.716;7.016;2023-02-27T00:48:30;4.50;;;2.93;;
71836;SDS011;59686;51.716;7.016;2023-02-27T00:50:56;3.57;;;2.47;;
71836;SDS011;59686;51.716;7.016;2023-02-27T00:53:23;4.60;;;2.83;;
71836;SDS011;59686;51.716;7.016;2023-02-27T00:55:49;3.97;;;2.80;;
71836;SDS011;59686;51.716;7.016;2023-02-27T00:58:15;3.73;;;2.90;;
71836;SDS011;59686;51.716;7.016;2023-02-27T01:00:43;3.63;;;2.43;;
71836;SDS011;59686;51.716;7.016;2023-02-27T01:03:09;4.30;;;2.37;;
71836;SDS011;59686;51.716;7.016;2023-02-27T01:05:35;3.73;;;2.40;;
71836;SDS011;59686;51.716;7.016;2023-02-27T01:08:01;4.83;;;2.63;;
71836;SDS011;59686;51.716;7.016;2023-02-27T01:10:41;3.83;;;2.60;;
71836;SDS011;59686;51.716;7.016;2023-02-27T01:13:07;3.93;;;2.43;;
71836;SDS011;59686;51.716;7.016;2023-02-27T01:15:33;2.90;;;2.40;;
71836;SDS011;59686;51.716;7.016;2023-02-27T01:17:59;3.87;;;2.40;;
71836;SDS011;59686;51.716;7.016;2023-02-27T01:20:25;5.40;;;2.57;;
71836;SDS011;59686;51.716;7.016;2023-02-27T01:22:50;4.73;;;2.40;;
71836;SDS011;59686;51.716;7.016;2023-02-27T01:25:16;4.23;;;2.40;;
71836;SDS011;59686;51.716;7.016;2023-02-27T01:27:42;3.70;;;2.50;;
71836;SDS011;59686;51.716;7.016;2023-02-27T01:30:08;3.97;;;2.70;;
71836;SDS011;59686;51.716;7.016;2023-02-27T01:32:35;3.83;;;2.30;;
71836;SDS011;59686;51.716;7.016;2023-02-27T01:35:02;5.87;;;2.33;;
71836;SDS011;59686;51.716;7.016;2023-02-27T01:37:28;3.57;;;2.53;;
71836;SDS011;59686;51.716;7.016;2023-02-27T01:39:54;4.70;;;2.47;;
71836;SDS011;59686;51.716;7.016;2023-02-27T01:42:24;3.77;;;2.30;;
71836;SDS011;59686;51.716;7.016;2023-02-27T01:47:36;2.90;;;2.17;;
71836;SDS011;59686;51.716;7.016;2023-02-27T01:50:05;3.90;;;2.40;;
71836;SDS011;59686;51.716;7.016;2023-02-27T01:52:31;5.07;;;2.40;;
71836;SDS011;59686;51.716;7.016;2023-02-27T01:55:00;3.23;;;2.03;;
71836;SDS011;59686;51.716;7.016;2023-02-27T01:57:27;3.77;;;2.10;;
71836;SDS011;59686;51.716;7.016;2023-02-27T01:59:53;3.87;;;2.40;;
71836;SDS011;59686;51.716;7.016;2023-02-27T02:02:22;2.80;;;1.90;;
71836;SDS011;59686;51.716;7.016;2023-02-27T02:04:52;3.33;;;2.30;;
71836;SDS011;59686;51.716;7.016;2023-02-27T02:07:18;2.63;;;1.93;;
71836;SDS011;59686;51.716;7.016;2023-02-27T02:09:49;3.30;;;1.90;;
71836;SDS011;59686;51.716;7.016;2023-02-27T02:12:19;3.67;;;2.00;;
71836;SDS011;59686;51.716;7.016;2023-02-27T02:14:49;3.23;;;1.73;;
71836;SDS011;59686;51.716;7.016;2023-02-27T02:27:59;3.13;;;2.33;;
71836;SDS011;59686;51.716;7.016;2023-02-27T02:36:41;2.57;;;1.90;;
71836;SDS011;59686;51.716;7.016;2023-02-27T02:39:32;5.13;;;2.50;;
71836;SDS011;59686;51.716;7.016;2023-02-27T02:50:11;2.63;;;1.93;;
71836;SDS011;59686;51.716;7.016;2023-02-27T03:00:31;2.03;;;1.80;;
71836;SDS011;59686;51.716;7.016;2023-02-27T03:03:21;4.63;;;2.23;;
71836;SDS011;59686;51.716;7.016;2023-02-27T03:06:00;2.70;;;2.00;;
71836;SDS011;59686;51.716;7.016;2023-02-27T03:08:33;4.00;;;2.17;;
71836;SDS011;59686;51.716;7.016;2023-02-27T03:11:03;4.57;;;2.10;;
71836;SDS011;59686;51.716;7.016;2023-02-27T03:13:33;3.57;;;1.97;;
71836;SDS011;59686;51.716;7.016;2023-02-27T03:21:42;2.73;;;1.90;;
71836;SDS011;59686;51.716;7.016;2023-02-27T03:24:29;3.23;;;2.00;;
71836;SDS011;59686;51.716;7.016;2023-02-27T03:26:57;3.93;;;2.00;;
71836;SDS011;59686;51.716;7.016;2023-02-27T03:33:00;2.77;;;1.90;;
71836;SDS011;59686;51.716;7.016;2023-02-27T03:35:09;2.87;;;1.90;;
71836;SDS011;59686;51.716;7.016;2023-02-27T03:40:33;3.50;;;2.13;;
71836;SDS011;59686;51.716;7.016;2023-02-27T03:48:34;3.47;;;1.87;;
71836;SDS011;59686;51.716;7.016;2023-02-27T03:51:00;3.07;;;1.80;;
71836;SDS011;59686;51.716;7.016;2023-02-27T03:53:40;3.33;;;1.90;;
71836;SDS011;59686;51.716;7.016;2023-02-27T03:56:30;5.43;;;1.97;;
71836;SDS011;59686;51.716;7.016;2023-02-27T03:59:04;4.63;;;2.00;;
71836;SDS011;59686;51.716;7.016;2023-02-27T04:01:31;2.40;;;1.90;;
71836;SDS011;59686;51.716;7.016;2023-02-27T04:04:09;3.10;;;1.90;;
71836;SDS011;59686;51.716;7.016;2023-02-27T04:06:37;2.30;;;2.10;;
71836;SDS011;59686;51.716;7.016;2023-02-27T04:09:38;2.63;;;2.00;;
71836;SDS011;59686;51.716;7.016;2023-02-27T04:15:56;3.43;;;1.80;;
71836;SDS011;59686;51.716;7.016;2023-02-27T04:18:40;4.03;;;1.90;;
71836;SDS011;59686;51.716;7.016;2023-02-27T04:26:49;3.50;;;1.93;;
71836;SDS011;59686;51.716;7.016;2023-02-27T04:29:22;4.03;;;2.20;;
71836;SDS011;59686;51.716;7.016;2023-02-27T04:32:03;6.50;;;2.07;;
71836;SDS011;59686;51.716;7.016;2023-02-27T04:39:37;3.40;;;2.00;;
71836;SDS011;59686;51.716;7.016;2023-02-27T04:42:12;2.70;;;2.03;;
71836;SDS011;59686;51.716;7.016;2023-02-27T04:44:41;2.23;;;1.80;;
71836;SDS011;59686;51.716;7.016;2023-02-27T04:47:08;2.60;;;2.00;;
71836;SDS011;59686;51.716;7.016;2023-02-27T04:49:38;3.83;;;1.80;;
71836;SDS011;59686;51.716;7.016;2023-02-27T04:52:26;3.43;;;1.80;;
71836;SDS011;59686;51.716;7.016;2023-02-27T04:57:54;3.00;;;2.07;;
71836;SDS011;59686;51.716;7.016;2023-02-27T05:00:28;3.20;;;1.83;;
71836;SDS011;59686;51.716;7.016;2023-02-27T05:03:01;2.40;;;1.60;;
71836;SDS011;59686;51.716;7.016;2023-02-27T05:05:32;4.27;;;1.97;;
71836;SDS011;59686;51.716;7.016;2023-02-27T05:08:12;2.00;;;1.80;;
71836;SDS011;59686;51.716;7.016;2023-02-27T05:11:30;3.13;;;2.10;;
71836;SDS011;59686;51.716;7.016;2023-02-27T05:13:57;3.37;;;1.97;;
71836;SDS011;59686;51.716;7.016;2023-02-27T05:16:31;2.90;;;1.90;;
71836;SDS011;59686;51.716;7.016;2023-02-27T05:19:06;2.13;;;1.77;;
71836;SDS011;59686;51.716;7.016;2023-02-27T05:21:35;4.10;;;2.00;;
71836;SDS011;59686;51.716;7.016;2023-02-27T05:26:57;3.77;;;2.10;;
71836;SDS011;59686;51.716;7.016;2023-02-27T05:32:53;3.63;;;1.80;;
71836;SDS011;59686;51.716;7.016;2023-02-27T05:41:09;4.70;;;2.10;;
71836;SDS011;59686;51.716;7.016;2023-02-27T05:43:45;3.30;;;2.17;;
71836;SDS011;59686;51.716;7.016;2023-02-27T05:46:20;2.10;;;1.90;;
71836;SDS011;59686;51.716;7.016;2023-02-27T05:48:53;3.20;;;2.00;;
71836;SDS011;59686;51.716;7.016;2023-02-27T05:51:26;3.50;;;1.90;;
71836;SDS011;59686;51.716;7.016;2023-02-27T05:54:00;3.83;;;2.10;;
71836;SDS011;59686;51.716;7.016;2023-02-27T05:56:34;3.07;;;2.20;;
71836;SDS011;59686;51.716;7.016;2023-02-27T05:59:02;2.40;;;2.07;;
71836;SDS011;59686;51.716;7.016;2023-02-27T06:01:34;2.30;;;2.00;;
71836;SDS011;59686;51.716;7.016;2023-02-27T06:04:00;3.23;;;2.10;;
71836;SDS011;59686;51.716;7.016;2023-02-27T06:06:26;3.43;;;2.50;;
71836;SDS011;59686;51.716;7.016;2023-02-27T06:08:54;3.23;;;2.20;;
71836;SDS011;59686;51.716;7.016;2023-02-27T06:11:20;3.13;;;2.17;;
71836;SDS011;59686;51.716;7.016;2023-02-27T06:13:45;4.57;;;2.17;;
71836;SDS011;59686;51.716;7.016;2023-02-27T06:16:12;3.00;;;2.13;;
71836;SDS011;59686;51.716;7.016;2023-02-27T06:18:38;4.47;;;2.47;;
71836;SDS011;59686;51.716;7.016;2023-02-27T06:21:04;4.77;;;2.50;;
71836;SDS011;59686;51.716;7.016;2023-02-27T06:23:30;3.43;;;2.43;;
71836;SDS011;59686;51.716;7.016;2023-02-27T06:25:56;3.57;;;2.30;;
71836;SDS011;59686;51.716;7.016;2023-02-27T06:28:22;5.07;;;2.40;;
71836;SDS011;59686;51.716;7.016;2023-02-27T06:30:51;3.47;;;2.27;;
71836;SDS011;59686;51.716;7.016;2023-02-27T06:33:18;3.07;;;2.40;;
71836;SDS011;59686;51.716;7.016;2023-02-27T06:35:46;4.93;;;2.50;;
71836;SDS011;59686;51.716;7.016;2023-02-27T06:38:12;4.20;;;2.60;;
71836;SDS011;59686;51.716;7.016;2023-02-27T06:40:38;3.63;;;2.30;;
71836;SDS011;59686;51.716;7.016;2023-02-27T06:43:03;4.70;;;2.53;;
71836;SDS011;59686;51.716;7.016;2023-02-27T06:45:29;3.73;;;2.77;;
71836;SDS011;59686;51.716;7.016;2023-02-27T06:47:55;4.97;;;2.90;;
71836;SDS011;59686;51.716;7.016;2023-02-27T06:50:24;3.80;;;2.67;;
71836;SDS011;59686;51.716;7.016;2023-02-27T06:52:49;5.63;;;2.73;;
71836;SDS011;59686;51.716;7.016;2023-02-27T06:55:15;3.63;;;2.67;;
71836;SDS011;59686;51.716;7.016;2023-02-27T06:57:49;4.97;;;2.83;;
71836;SDS011;59686;51.716;7.016;2023-02-27T07:00:14;6.10;;;3.00;;
71836;SDS011;59686;51.716;7.016;2023-02-27T07:02:44;5.40;;;2.70;;
71836;SDS011;59686;51.716;7.016;2023-02-27T07:05:18;3.70;;;2.53;;
71836;SDS011;59686;51.716;7.016;2023-02-27T07:07:47;5.23;;;2.77;;
71836;SDS011;59686;51.716;7.016;2023-02-27T07:10:12;5.53;;;3.03;;
71836;SDS011;59686;51.716;7.016;2023-02-27T07:12:39;6.53;;;3.00;;
71836;SDS011;59686;51.716;7.016;2023-02-27T07:15:05;6.13;;;3.40;;
71836;SDS011;59686;51.716;7.016;2023-02-27T07:17:35;7.80;;;3.57;;
71836;SDS011;59686;51.716;7.016;2023-02-27T07:20:04;3.93;;;3.43;;
71836;SDS011;59686;51.716;7.016;2023-02-27T07:22:35;4.70;;;3.53;;
71836;SDS011;59686;51.716;7.016;2023-02-27T07:25:05;5.23;;;3.33;;
71836;SDS011;59686;51.716;7.016;2023-02-27T07:27:36;7.03;;;3.83;;
71836;SDS011;59686;51.716;7.016;2023-02-27T07:30:02;5.87;;;3.80;;
71836;SDS011;59686;51.716;7.016;2023-02-27T07:32:29;4.17;;;3.70;;
71836;SDS011;59686;51.716;7.016;2023-02-27T07:34:54;5.00;;;3.70;;
71836;SDS011;59686;51.716;7.016;2023-02-27T07:37:20;6.40;;;4.03;;
71836;SDS011;59686;51.716;7.016;2023-02-27T07:39:46;5.53;;;3.53;;
71836;SDS011;59686;51.716;7.016;2023-02-27T07:42:12;7.77;;;3.93;;
71836;SDS011;59686;51.716;7.016;2023-02-27T07:44:37;5.43;;;3.67;;
71836;SDS011;59686;51.716;7.016;2023-02-27T07:47:04;4.97;;;3.83;;
71836;SDS011;59686;51.716;7.016;2023-02-27T07:49:30;5.17;;;3.40;;
71836;SDS011;59686;51.716;7.016;2023-02-27T07:51:56;8.07;;;4.00;;
71836;SDS011;59686;51.716;7.016;2023-02-27T07:54:22;4.27;;;3.50;;
71836;SDS011;59686;51.716;7.016;2023-02-27T07:56:51;6.50;;;3.50;;
71836;SDS011;59686;51.716;7.016;2023-02-27T07:59:17;4.33;;;3.20;;
71836;SDS011;59686;51.716;7.016;2023-02-27T08:01:42;4.70;;;3.50;;
71836;SDS011;59686;51.716;7.016;2023-02-27T08:04:08;6.33;;;3.27;;
71836;SDS011;59686;51.716;7.016;2023-02-27T08:06:34;5.00;;;3.40;;
71836;SDS011;59686;51.716;7.016;2023-02-27T08:08:59;5.53;;;3.33;;
71836;SDS011;59686;51.716;7.016;2023-02-27T08:11:28;7.23;;;3.40;;
71836;SDS011;59686;51.716;7.016;2023-02-27T08:13:59;6.53;;;3.20;;
71836;SDS011;59686;51.716;7.016;2023-02-27T08:16:25;3.30;;;2.80;;
71836;SDS011;59686;51.716;7.016;2023-02-27T08:18:50;5.87;;;2.90;;
71836;SDS011;59686;51.716;7.016;2023-02-27T08:21:16;3.77;;;3.13;;
71836;SDS011;59686;51.716;7.016;2023-02-27T08:23:42;5.50;;;2.97;;
71836;SDS011;59686;51.716;7.016;2023-02-27T08:26:07;4.03;;;3.00;;
71836;SDS011;59686;51.716;7.016;2023-02-27T08:28:33;3.93;;;2.90;;
71836;SDS011;59686;51.716;7.016;2023-02-27T08:30:59;4.40;;;2.83;;
71836;SDS011;59686;51.716;7.016;2023-02-27T08:33:24;4.50;;;3.00;;
71836;SDS011;59686;51.716;7.016;2023-02-27T08:35:50;4.20;;;3.07;;
71836;SDS011;59686;51.716;7.016;2023-02-27T08:38:18;3.37;;;2.50;;
71836;SDS011;59686;51.716;7.016;2023-02-27T08:40:44;3.40;;;2.60;;
71836;SDS011;59686;51.716;7.016;2023-02-27T08:43:10;2.70;;;2.40;;
71836;SDS011;59686;51.716;7.016;2023-02-27T08:45:35;5.30;;;2.80;;
71836;SDS011;59686;51.716;7.016;2023-02-27T08:48:01;3.53;;;2.57;;
71836;SDS011;59686;51.716;7.016;2023-02-27T08:50:27;4.37;;;2.60;;
71836;SDS011;59686;51.716;7.016;2023-02-27T08:52:53;3.37;;;1.97;;
71836;SDS011;59686;51.716;7.016;2023-02-27T08:55:18;3.27;;;2.50;;
71836;SDS011;59686;51.716;7.016;2023-02-27T08:57:45;3.87;;;2.20;;
71836;SDS011;59686;51.716;7.016;2023-02-27T09:00:11;4.57;;;2.50;;
71836;SDS011;59686;51.716;7.016;2023-02-27T09:02:38;3.03;;;2.40;;
71836;SDS011;59686;51.716;7.016;2023-02-27T09:05:05;5.80;;;2.20;;
71836;SDS011;59686;51.716;7.016;2023-02-27T09:07:30;3.87;;;2.23;;
71836;SDS011;59686;51.716;7.016;2023-02-27T09:09:59;5.87;;;2.40;;
71836;SDS011;59686;51.716;7.016;2023-02-27T09:12:25;2.53;;;2.07;;
71836;SDS011;59686;51.716;7.016;2023-02-27T09:14:50;3.97;;;2.30;;
71836;SDS011;59686;51.716;7.016;2023-02-27T09:17:16;4.23;;;2.10;;
71836;SDS011;59686;51.716;7.016;2023-02-27T09:19:42;3.40;;;2.10;;
71836;SDS011;59686;51.716;7.016;2023-02-27T09:22:07;3.10;;;2.00;;
71836;SDS011;59686;51.716;7.016;2023-02-27T09:24:33;3.83;;;2.03;;
71836;SDS011;59686;51.716;7.016;2023-02-27T09:26:59;3.77;;;2.00;;
71836;SDS011;59686;51.716;7.016;2023-02-27T09:29:25;3.90;;;1.93;;
71836;SDS011;59686;51.716;7.016;2023-02-27T09:31:51;4.03;;;2.00;;
71836;SDS011;59686;51.716;7.016;2023-02-27T09:34:17;3.23;;;1.90;;
71836;SDS011;59686;51.716;7.016;2023-02-27T09:36:43;4.80;;;1.67;;
71836;SDS011;59686;51.716;7.016;2023-02-27T09:39:09;4.40;;;2.20;;
71836;SDS011;59686;51.716;7.016;2023-02-27T09:44:30;2.73;;;1.73;;
71836;SDS011;59686;51.716;7.016;2023-02-27T09:46:56;2.33;;;2.00;;
71836;SDS011;59686;51.716;7.016;2023-02-27T09:49:23;3.20;;;1.80;;
71836;SDS011;59686;51.716;7.016;2023-02-27T09:51:55;3.37;;;1.90;;
71836;SDS011;59686;51.716;7.016;2023-02-27T09:54:21;4.80;;;2.00;;
71836;SDS011;59686;51.716;7.016;2023-02-27T09:56:51;2.97;;;1.80;;
71836;SDS011;59686;51.716;7.016;2023-02-27T10:05:21;3.33;;;1.67;;
71836;SDS011;59686;51.716;7.016;2023-02-27T10:08:00;3.97;;;2.00;;
71836;SDS011;59686;51.716;7.016;2023-02-27T10:10:37;2.97;;;1.63;;
71836;SDS011;59686;51.716;7.016;2023-02-27T10:15:57;4.93;;;2.00;;
71836;SDS011;59686;51.716;7.016;2023-02-27T10:24:12;4.20;;;2.03;;
71836;SDS011;59686;51.716;7.016;2023-02-27T10:26:58;3.50;;;2.03;;
71836;SDS011;59686;51.716;7.016;2023-02-27T10:32:09;3.57;;;1.77;;
71836;SDS011;59686;51.716;7.016;2023-02-27T10:34:40;4.50;;;1.87;;
71836;SDS011;59686;51.716;7.016;2023-02-27T10:37:09;4.23;;;1.70;;
71836;SDS011;59686;51.716;7.016;2023-02-27T10:39:51;3.97;;;1.70;;
71836;SDS011;59686;51.716;7.016;2023-02-27T10:42:23;2.57;;;1.70;;
71836;SDS011;59686;51.716;7.016;2023-02-27T10:44:54;2.77;;;1.60;;
71836;SDS011;59686;51.716;7.016;2023-02-27T10:47:21;3.40;;;1.80;;
71836;SDS011;59686;51.716;7.016;2023-02-27T10:49:48;3.67;;;1.60;;
71836;SDS011;59686;51.716;7.016;2023-02-27T10:52:14;3.53;;;1.70;;
71836;SDS011;59686;51.716;7.016;2023-02-27T10:54:41;4.40;;;1.90;;
71836;SDS011;59686;51.716;7.016;2023-02-27T10:59:59;3.27;;;1.80;;
71836;SDS011;59686;51.716;7.016;2023-02-27T11:05:06;5.27;;;1.97;;
71836;SDS011;59686;51.716;7.016;2023-02-27T11:07:49;3.57;;;1.90;;
71836;SDS011;59686;51.716;7.016;2023-02-27T11:10:21;2.70;;;1.97;;
71836;SDS011;59686;51.716;7.016;2023-02-27T11:13:02;4.10;;;1.93;;
71836;SDS011;59686;51.716;7.016;2023-02-27T11:18:29;5.33;;;1.97;;
71836;SDS011;59686;51.716;7.016;2023-02-27T11:23:59;3.70;;;1.87;;
71836;SDS011;59686;51.716;7.016;2023-02-27T11:31:53;6.00;;;1.80;;
71836;SDS011;59686;51.716;7.016;2023-02-27T11:34:37;3.80;;;1.60;;
71836;SDS011;59686;51.716;7.016;2023-02-27T11:42:33;3.67;;;1.50;;
71836;SDS011;59686;51.716;7.016;2023-02-27T11:45:07;3.57;;;1.70;;
71836;SDS011;59686;51.716;7.016;2023-02-27T11:56:33;4.57;;;1.70;;
71836;SDS011;59686;51.716;7.016;2023-02-27T12:05:18;2.60;;;1.50;;
71836;SDS011;59686;51.716;7.016;2023-02-27T12:07:52;2.27;;;1.57;;
71836;SDS011;59686;51.716;7.016;2023-02-27T12:10:21;3.07;;;1.50;;
71836;SDS011;59686;51.716;7.016;2023-02-27T12:12:59;4.57;;;2.07;;
71836;SDS011;59686;51.716;7.016;2023-02-27T12:18:38;2.00;;;1.63;;
71836;SDS011;59686;51.716;7.016;2023-02-27T12:21:32;2.47;;;1.60;;
71836;SDS011;59686;51.716;7.016;2023-02-27T12:26:48;6.87;;;1.80;;
71836;SDS011;59686;51.716;7.016;2023-02-27T12:29:49;3.43;;;1.63;;
71836;SDS011;59686;51.716;7.016;2023-02-27T12:35:27;2.37;;;1.40;;
71836;SDS011;59686;51.716;7.016;2023-02-27T12:38:00;1.53;;;1.20;;
71836;SDS011;59686;51.716;7.016;2023-02-27T12:41:13;2.07;;;1.17;;
71836;SDS011;59686;51.716;7.016;2023-02-27T12:49:46;4.50;;;1.70;;
71836;SDS011;59686;51.716;7.016;2023-02-27T12:52:33;2.67;;;1.33;;
71836;SDS011;59686;51.716;7.016;2023-02-27T12:55:22;3.93;;;1.80;;
71836;SDS011;59686;51.716;7.016;2023-02-27T13:01:17;2.63;;;1.70;;
71836;SDS011;59686;51.716;7.016;2023-02-27T13:12:06;2.93;;;1.83;;
71836;SDS011;59686;51.716;7.016;2023-02-27T13:17:41;2.90;;;1.87;;
71836;SDS011;59686;51.716;7.016;2023-02-27T13:23:21;3.23;;;1.70;;
71836;SDS011;59686;51.716;7.016;2023-02-27T13:26:16;5.37;;;2.10;;
71836;SDS011;59686;51.716;7.016;2023-02-27T13:28:55;2.60;;;1.90;;
71836;SDS011;59686;51.716;7.016;2023-02-27T13:34:29;4.07;;;2.27;;
71836;SDS011;59686;51.716;7.016;2023-02-27T13:37:09;3.07;;;1.90;;
71836;SDS011;59686;51.716;7.016;2023-02-27T13:39:54;3.27;;;2.03;;
71836;SDS011;59686;51.716;7.016;2023-02-27T13:45:04;2.23;;;1.63;;
71836;SDS011;59686;51.716;7.016;2023-02-27T13:47:59;2.30;;;1.60;;
71836;SDS011;59686;51.716;7.016;2023-02-27T13:53:07;3.87;;;1.80;;
71836;SDS011;59686;51.716;7.016;2023-02-27T13:55:44;2.47;;;1.80;;
71836;SDS011;59686;51.716;7.016;2023-02-27T13:58:23;3.47;;;2.10;;
71836;SDS011;59686;51.716;7.016;2023-02-27T14:00:54;2.73;;;1.63;;
71836;SDS011;59686;51.716;7.016;2023-02-27T14:03:37;2.63;;;1.87;;
71836;SDS011;59686;51.716;7.016;2023-02-27T14:06:04;2.57;;;1.90;;
71836;SDS011;59686;51.716;7.016;2023-02-27T14:11:40;3.63;;;2.03;;
71836;SDS011;59686;51.716;7.016;2023-02-27T14:14:51;5.27;;;2.20;;
71836;SDS011;59686;51.716;7.016;2023-02-27T14:17:37;5.17;;;2.33;;
71836;SDS011;59686;51.716;7.016;2023-02-27T14:25:37;3.47;;;1.90;;
71836;SDS011;59686;51.716;7.016;2023-02-27T14:28:25;3.10;;;2.00;;
71836;SDS011;59686;51.716;7.016;2023-02-27T14:31:05;2.90;;;2.00;;
71836;SDS011;59686;51.716;7.016;2023-02-27T14:36:16;2.43;;;1.80;;
71836;SDS011;59686;51.716;7.016;2023-02-27T14:38:48;3.90;;;2.00;;
71836;SDS011;59686;51.716;7.016;2023-02-27T14:44:04;2.07;;;1.60;;
71836;SDS011;59686;51.716;7.016;2023-02-27T14:46:54;1.90;;;1.70;;
71836;SDS011;59686;51.716;7.016;2023-02-27T14:49:27;2.77;;;1.60;;
71836;SDS011;59686;51.716;7.016;2023-02-27T14:51:55;2.83;;;1.80;;
71836;SDS011;59686;51.716;7.016;2023-02-27T14:55:13;4.07;;;1.70;;
71836;SDS011;59686;51.716;7.016;2023-02-27T15:01:02;2.73;;;1.97;;
71836;SDS011;59686;51.716;7.016;2023-02-27T15:04:04;3.77;;;2.03;;
71836;SDS011;59686;51.716;7.016;2023-02-27T15:06:53;5.50;;;2.00;;
71836;SDS011;59686;51.716;7.016;2023-02-27T15:15:25;1.97;;;1.63;;
71836;SDS011;59686;51.716;7.016;2023-02-27T15:18:34;2.30;;;1.73;;
71836;SDS011;59686;51.716;7.016;2023-02-27T15:21:14;3.33;;;1.93;;
71836;SDS011;59686;51.716;7.016;2023-02-27T15:23:57;3.83;;;1.77;;
71836;SDS011;59686;51.716;7.016;2023-02-27T15:26:25;3.50;;;1.67;;
71836;SDS011;59686;51.716;7.016;2023-02-27T15:28:57;5.37;;;1.80;;
71836;SDS011;59686;51.716;7.016;2023-02-27T15:31:24;2.53;;;1.90;;
71836;SDS011;59686;51.716;7.016;2023-02-27T15:33:59;4.37;;;1.93;;
71836;SDS011;59686;51.716;7.016;2023-02-27T15:36:38;2.00;;;1.67;;
71836;SDS011;59686;51.716;7.016;2023-02-27T15:39:18;3.17;;;2.13;;
71836;SDS011;59686;51.716;7.016;2023-02-27T15:41:47;2.20;;;1.80;;
71836;SDS011;59686;51.716;7.016;2023-02-27T15:44:19;5.30;;;1.87;;
71836;SDS011;59686;51.716;7.016;2023-02-27T15:46:53;2.30;;;1.70;;
71836;SDS011;59686;51.716;7.016;2023-02-27T15:49:21;3.53;;;1.90;;
71836;SDS011;59686;51.716;7.016;2023-02-27T15:52:09;3.43;;;1.90;;
71836;SDS011;59686;51.716;7.016;2023-02-27T15:54:45;1.63;;;1.53;;
71836;SDS011;59686;51.716;7.016;2023-02-27T15:57:16;2.60;;;1.50;;
71836;SDS011;59686;51.716;7.016;2023-02-27T15:59:43;2.57;;;1.97;;
71836;SDS011;59686;51.716;7.016;2023-02-27T16:02:14;2.73;;;1.87;;
71836;SDS011;59686;51.716;7.016;2023-02-27T16:04:49;3.33;;;1.60;;
71836;SDS011;59686;51.716;7.016;2023-02-27T16:07:37;4.10;;;1.90;;
71836;SDS011;59686;51.716;7.016;2023-02-27T16:10:13;4.07;;;1.90;;
71836;SDS011;59686;51.716;7.016;2023-02-27T16:12:48;2.60;;;1.97;;
71836;SDS011;59686;51.716;7.016;2023-02-27T16:18:00;4.90;;;2.07;;
71836;SDS011;59686;51.716;7.016;2023-02-27T16:20:57;3.50;;;1.70;;
71836;SDS011;59686;51.716;7.016;2023-02-27T16:23:33;5.83;;;1.90;;
71836;SDS011;59686;51.716;7.016;2023-02-27T16:26:04;3.20;;;1.80;;
71836;SDS011;59686;51.716;7.016;2023-02-27T16:29:01;3.43;;;1.73;;
71836;SDS011;59686;51.716;7.016;2023-02-27T16:31:29;3.43;;;1.97;;
71836;SDS011;59686;51.716;7.016;2023-02-27T16:34:14;2.37;;;1.70;;
71836;SDS011;59686;51.716;7.016;2023-02-27T16:36:53;3.17;;;1.70;;
71836;SDS011;59686;51.716;7.016;2023-02-27T16:39:23;3.63;;;1.70;;
71836;SDS011;59686;51.716;7.016;2023-02-27T16:41:53;3.70;;;1.67;;
71836;SDS011;59686;51.716;7.016;2023-02-27T16:44:19;5.73;;;2.10;;
71836;SDS011;59686;51.716;7.016;2023-02-27T16:46:46;3.90;;;1.50;;
71836;SDS011;59686;51.716;7.016;2023-02-27T16:49:22;3.23;;;2.13;;
71836;SDS011;59686;51.716;7.016;2023-02-27T16:51:50;3.03;;;1.93;;
71836;SDS011;59686;51.716;7.016;2023-02-27T16:54:16;6.67;;;2.20;;
71836;SDS011;59686;51.716;7.016;2023-02-27T16:56:42;2.23;;;1.70;;
71836;SDS011;59686;51.716;7.016;2023-02-27T16:59:32;2.33;;;2.00;;
71836;SDS011;59686;51.716;7.016;2023-02-27T17:01:58;2.87;;;1.93;;
71836;SDS011;59686;51.716;7.016;2023-02-27T17:04:25;3.23;;;2.00;;
71836;SDS011;59686;51.716;7.016;2023-02-27T17:06:52;2.13;;;1.80;;
71836;SDS011;59686;51.716;7.016;2023-02-27T17:09:22;2.63;;;1.87;;
71836;SDS011;59686;51.716;7.016;2023-02-27T17:11:48;2.17;;;1.83;;
71836;SDS011;59686;51.716;7.016;2023-02-27T17:14:14;3.50;;;2.60;;
71836;SDS011;59686;51.716;7.016;2023-02-27T17:16:40;3.73;;;1.97;;
71836;SDS011;59686;51.716;7.016;2023-02-27T17:19:08;2.87;;;1.90;;
71836;SDS011;59686;51.716;7.016;2023-02-27T17:21:34;3.73;;;2.07;;
71836;SDS011;59686;51.716;7.016;2023-02-27T17:24:00;3.77;;;2.00;;
71836;SDS011;59686;51.716;7.016;2023-02-27T17:26:30;3.03;;;2.00;;
71836;SDS011;59686;51.716;7.016;2023-02-27T17:28:56;4.03;;;2.00;;
71836;SDS011;59686;51.716;7.016;2023-02-27T17:31:25;2.67;;;2.00;;
71836;SDS011;59686;51.716;7.016;2023-02-27T17:33:51;5.10;;;2.03;;
71836;SDS011;59686;51.716;7.016;2023-02-27T17:36:18;4.60;;;2.00;;
71836;SDS011;59686;51.716;7.016;2023-02-27T17:38:44;2.43;;;1.80;;
71836;SDS011;59686;51.716;7.016;2023-02-27T17:41:12;3.53;;;1.97;;
71836;SDS011;59686;51.716;7.016;2023-02-27T17:43:38;2.63;;;1.77;;
71836;SDS011;59686;51.716;7.016;2023-02-27T17:46:09;3.80;;;2.10;;
71836;SDS011;59686;51.716;7.016;2023-02-27T17:48:36;3.97;;;1.90;;
71836;SDS011;59686;51.716;7.016;2023-02-27T17:51:08;3.93;;;2.07;;
71836;SDS011;59686;51.716;7.016;2023-02-27T17:53:35;2.93;;;1.97;;
71836;SDS011;59686;51.716;7.016;2023-02-27T17:56:02;2.63;;;2.00;;
71836;SDS011;59686;51.716;7.016;2023-02-27T17:58:29;2.10;;;1.90;;
71836;SDS011;59686;51.716;7.016;2023-02-27T18:01:01;5.33;;;2.20;;
71836;SDS011;59686;51.716;7.016;2023-02-27T18:03:32;3.40;;;2.13;;
71836;SDS011;59686;51.716;7.016;2023-02-27T18:06:04;2.80;;;2.10;;
71836;SDS011;59686;51.716;7.016;2023-02-27T18:08:31;3.13;;;2.00;;
71836;SDS011;59686;51.716;7.016;2023-02-27T18:11:01;3.67;;;2.40;;
71836;SDS011;59686;51.716;7.016;2023-02-27T18:13:30;3.10;;;2.47;;
71836;SDS011;59686;51.716;7.016;2023-02-27T18:15:55;4.00;;;2.87;;
71836;SDS011;59686;51.716;7.016;2023-02-27T18:18:22;4.03;;;2.37;;
71836;SDS011;59686;51.716;7.016;2023-02-27T18:20:57;4.07;;;2.73;;
71836;SDS011;59686;51.716;7.016;2023-02-27T18:23:25;3.53;;;2.53;;
71836;SDS011;59686;51.716;7.016;2023-02-27T18:25:54;5.37;;;2.63;;
71836;SDS011;59686;51.716;7.016;2023-02-27T18:28:21;4.03;;;2.90;;
71836;SDS011;59686;51.716;7.016;2023-02-27T18:30:52;3.57;;;2.73;;
71836;SDS011;59686;51.716;7.016;2023-02-27T18:33:18;5.00;;;2.80;;
71836;SDS011;59686;51.716;7.016;2023-02-27T18:35:44;4.53;;;2.77;;
71836;SDS011;59686;51.716;7.016;2023-02-27T18:38:10;5.00;;;3.00;;
71836;SDS011;59686;51.716;7.016;2023-02-27T18:40:36;4.70;;;2.87;;